sensor_id;sensor_type;location;lat;lon;timestamp;temperature;humidity
4097;DHT22;2062;50.694;7.246;2022-08-05T00:01:11;28.80;40.90
4097;DHT22;2062;50.694;7.246;2022-08-05T00:03:40;28.80;41.00
4097;DHT22;2062;50.694;7.246;2022-08-05T00:06:07;28.80;41.20
4097;DHT22;2062;50.694;7.246;2022-08-05T00:08:35;28.80;41.20
4097;DHT22;2062;50.694;7.246;2022-08-05T00:11:04;28.80;41.20
4097;DHT22;2062;50.694;7.246;2022-08-05T00:13:32;28.80;42.00
4097;DHT22;2062;50.694;7.246;2022-08-05T00:15:59;28.80;41.40
4097;DHT22;2062;50.694;7.246;2022-08-05T00:18:26;28.80;41.50
4097;DHT22;2062;50.694;7.246;2022-08-05T00:20:54;28.80;42.30
4097;DHT22;2062;50.694;7.246;2022-08-05T00:23:21;28.80;41.60
4097;DHT22;2062;50.694;7.246;2022-08-05T00:25:49;28.80;41.60
4097;DHT22;2062;50.694;7.246;2022-08-05T00:28:16;28.80;42.40
4097;DHT22;2062;50.694;7.246;2022-08-05T00:30:43;28.80;41.70
4097;DHT22;2062;50.694;7.246;2022-08-05T00:33:10;28.70;41.80
4097;DHT22;2062;50.694;7.246;2022-08-05T00:35:37;28.80;41.80
4097;DHT22;2062;50.694;7.246;2022-08-05T00:38:05;28.80;41.80
4097;DHT22;2062;50.694;7.246;2022-08-05T00:40:32;28.80;41.80
4097;DHT22;2062;50.694;7.246;2022-08-05T00:43:00;28.80;41.80
4097;DHT22;2062;50.694;7.246;2022-08-05T00:45:28;28.80;41.70
4097;DHT22;2062;50.694;7.246;2022-08-05T00:47:55;28.70;41.70
4097;DHT22;2062;50.694;7.246;2022-08-05T00:50:22;28.80;41.70
4097;DHT22;2062;50.694;7.246;2022-08-05T00:52:49;28.70;41.60
4097;DHT22;2062;50.694;7.246;2022-08-05T00:55:17;28.70;42.30
4097;DHT22;2062;50.694;7.246;2022-08-05T00:57:44;28.80;41.60
4097;DHT22;2062;50.694;7.246;2022-08-05T01:00:12;28.70;41.60
4097;DHT22;2062;50.694;7.246;2022-08-05T01:02:39;28.70;41.60
4097;DHT22;2062;50.694;7.246;2022-08-05T01:05:06;28.70;41.60
4097;DHT22;2062;50.694;7.246;2022-08-05T01:07:33;28.70;41.70
4097;DHT22;2062;50.694;7.246;2022-08-05T01:10:01;28.70;41.70
4097;DHT22;2062;50.694;7.246;2022-08-05T01:12:30;28.70;41.70
4097;DHT22;2062;50.694;7.246;2022-08-05T01:15:02;28.70;41.70
4097;DHT22;2062;50.694;7.246;2022-08-05T01:17:36;28.70;41.80
4097;DHT22;2062;50.694;7.246;2022-08-05T01:20:25;28.70;41.70
4097;DHT22;2062;50.694;7.246;2022-08-05T01:23:05;28.70;41.80
4097;DHT22;2062;50.694;7.246;2022-08-05T01:25:59;28.70;41.70
4097;DHT22;2062;50.694;7.246;2022-08-05T01:28:32;28.70;41.70
4097;DHT22;2062;50.694;7.246;2022-08-05T01:31:08;28.70;41.70
4097;DHT22;2062;50.694;7.246;2022-08-05T01:33:40;28.70;41.70
4097;DHT22;2062;50.694;7.246;2022-08-05T01:36:12;28.70;41.70
4097;DHT22;2062;50.694;7.246;2022-08-05T01:38:39;28.70;41.60
4097;DHT22;2062;50.694;7.246;2022-08-05T01:41:07;28.70;41.70
4097;DHT22;2062;50.694;7.246;2022-08-05T01:43:36;28.70;41.70
4097;DHT22;2062;50.694;7.246;2022-08-05T01:46:03;28.70;41.70
4097;DHT22;2062;50.694;7.246;2022-08-05T01:48:33;28.70;41.70
4097;DHT22;2062;50.694;7.246;2022-08-05T01:51:02;28.70;42.40
4097;DHT22;2062;50.694;7.246;2022-08-05T01:53:30;28.70;41.80
4097;DHT22;2062;50.694;7.246;2022-08-05T01:56:01;28.70;41.80
4097;DHT22;2062;50.694;7.246;2022-08-05T01:58:29;28.70;41.80
4097;DHT22;2062;50.694;7.246;2022-08-05T02:00:58;28.70;42.50
4097;DHT22;2062;50.694;7.246;2022-08-05T02:03:30;28.70;41.90
4097;DHT22;2062;50.694;7.246;2022-08-05T02:05:59;28.60;41.90
4097;DHT22;2062;50.694;7.246;2022-08-05T02:08:26;28.60;41.90
4097;DHT22;2062;50.694;7.246;2022-08-05T02:11:09;28.60;41.90
4097;DHT22;2062;50.694;7.246;2022-08-05T02:13:41;28.60;41.90
4097;DHT22;2062;50.694;7.246;2022-08-05T02:16:15;28.60;41.90
4097;DHT22;2062;50.694;7.246;2022-08-05T02:18:48;28.60;41.90
4097;DHT22;2062;50.694;7.246;2022-08-05T02:21:18;28.70;41.90
4097;DHT22;2062;50.694;7.246;2022-08-05T02:23:47;28.60;41.90
4097;DHT22;2062;50.694;7.246;2022-08-05T02:26:20;28.60;42.00
4097;DHT22;2062;50.694;7.246;2022-08-05T02:28:47;28.60;42.00
4097;DHT22;2062;50.694;7.246;2022-08-05T02:31:22;28.60;41.90
4097;DHT22;2062;50.694;7.246;2022-08-05T02:33:52;28.60;42.00
4097;DHT22;2062;50.694;7.246;2022-08-05T02:36:21;28.60;42.00
4097;DHT22;2062;50.694;7.246;2022-08-05T02:38:49;28.60;42.00
4097;DHT22;2062;50.694;7.246;2022-08-05T02:41:20;28.60;42.00
4097;DHT22;2062;50.694;7.246;2022-08-05T02:43:47;28.60;41.90
4097;DHT22;2062;50.694;7.246;2022-08-05T02:46:16;28.60;42.40
4097;DHT22;2062;50.694;7.246;2022-08-05T02:48:45;28.50;41.50
4097;DHT22;2062;50.694;7.246;2022-08-05T02:51:13;28.50;42.10
4097;DHT22;2062;50.694;7.246;2022-08-05T02:53:41;28.50;41.20
4097;DHT22;2062;50.694;7.246;2022-08-05T02:56:09;28.50;41.10
4097;DHT22;2062;50.694;7.246;2022-08-05T02:58:38;28.50;41.00
4097;DHT22;2062;50.694;7.246;2022-08-05T03:01:08;28.50;40.80
4097;DHT22;2062;50.694;7.246;2022-08-05T03:03:38;28.50;40.80
4097;DHT22;2062;50.694;7.246;2022-08-05T03:06:07;28.50;40.60
4097;DHT22;2062;50.694;7.246;2022-08-05T03:08:36;28.50;40.60
4097;DHT22;2062;50.694;7.246;2022-08-05T03:11:03;28.50;40.50
4097;DHT22;2062;50.694;7.246;2022-08-05T03:13:41;28.40;40.50
4097;DHT22;2062;50.694;7.246;2022-08-05T03:16:08;28.40;40.40
4097;DHT22;2062;50.694;7.246;2022-08-05T03:18:36;28.40;40.40
4097;DHT22;2062;50.694;7.246;2022-08-05T03:21:03;28.30;40.40
4097;DHT22;2062;50.694;7.246;2022-08-05T03:23:30;28.40;40.40
4097;DHT22;2062;50.694;7.246;2022-08-05T03:25:58;28.30;40.30
4097;DHT22;2062;50.694;7.246;2022-08-05T03:28:25;28.40;40.40
4097;DHT22;2062;50.694;7.246;2022-08-05T03:30:53;28.40;40.40
4097;DHT22;2062;50.694;7.246;2022-08-05T03:33:20;28.30;40.40
4097;DHT22;2062;50.694;7.246;2022-08-05T03:35:49;28.30;40.40
4097;DHT22;2062;50.694;7.246;2022-08-05T03:38:16;28.30;40.50
4097;DHT22;2062;50.694;7.246;2022-08-05T03:40:45;28.30;40.50
4097;DHT22;2062;50.694;7.246;2022-08-05T03:43:11;28.30;40.50
4097;DHT22;2062;50.694;7.246;2022-08-05T03:45:38;28.30;40.50
4097;DHT22;2062;50.694;7.246;2022-08-05T03:48:05;28.30;40.50
4097;DHT22;2062;50.694;7.246;2022-08-05T03:50:39;28.30;40.50
4097;DHT22;2062;50.694;7.246;2022-08-05T03:53:12;28.30;40.50
4097;DHT22;2062;50.694;7.246;2022-08-05T03:55:57;28.30;40.50
4097;DHT22;2062;50.694;7.246;2022-08-05T03:58:27;28.30;40.50
4097;DHT22;2062;50.694;7.246;2022-08-05T04:00:59;28.30;40.50
4097;DHT22;2062;50.694;7.246;2022-08-05T04:03:27;28.30;40.50
4097;DHT22;2062;50.694;7.246;2022-08-05T04:05:57;28.30;40.50
4097;DHT22;2062;50.694;7.246;2022-08-05T04:08:26;28.30;40.50
4097;DHT22;2062;50.694;7.246;2022-08-05T04:10:55;28.30;40.40
4097;DHT22;2062;50.694;7.246;2022-08-05T04:13:22;28.30;41.10
4097;DHT22;2062;50.694;7.246;2022-08-05T04:15:50;28.20;40.40
4097;DHT22;2062;50.694;7.246;2022-08-05T04:18:17;28.30;40.60
4097;DHT22;2062;50.694;7.246;2022-08-05T04:20:44;28.20;40.50
4097;DHT22;2062;50.694;7.246;2022-08-05T04:23:17;28.20;40.50
4097;DHT22;2062;50.694;7.246;2022-08-05T04:25:46;28.30;40.50
4097;DHT22;2062;50.694;7.246;2022-08-05T04:28:13;28.30;40.40
4097;DHT22;2062;50.694;7.246;2022-08-05T04:30:39;28.30;40.50
4097;DHT22;2062;50.694;7.246;2022-08-05T04:33:06;28.30;40.50
4097;DHT22;2062;50.694;7.246;2022-08-05T04:35:33;28.20;40.60
4097;DHT22;2062;50.694;7.246;2022-08-05T04:38:00;28.20;40.60
4097;DHT22;2062;50.694;7.246;2022-08-05T04:40:27;28.20;40.60
4097;DHT22;2062;50.694;7.246;2022-08-05T04:42:55;28.20;41.30
4097;DHT22;2062;50.694;7.246;2022-08-05T04:45:22;28.20;40.70
4097;DHT22;2062;50.694;7.246;2022-08-05T04:47:50;28.20;40.60
4097;DHT22;2062;50.694;7.246;2022-08-05T04:50:17;28.20;40.60
4097;DHT22;2062;50.694;7.246;2022-08-05T04:52:43;28.20;40.60
4097;DHT22;2062;50.694;7.246;2022-08-05T04:55:10;28.20;40.60
4097;DHT22;2062;50.694;7.246;2022-08-05T04:57:37;28.20;40.60
4097;DHT22;2062;50.694;7.246;2022-08-05T05:00:07;28.20;40.60
4097;DHT22;2062;50.694;7.246;2022-08-05T05:02:34;28.20;40.60
4097;DHT22;2062;50.694;7.246;2022-08-05T05:05:01;28.20;40.70
4097;DHT22;2062;50.694;7.246;2022-08-05T05:07:27;28.20;40.70
4097;DHT22;2062;50.694;7.246;2022-08-05T05:09:54;28.10;40.70
4097;DHT22;2062;50.694;7.246;2022-08-05T05:12:21;28.10;40.60
4097;DHT22;2062;50.694;7.246;2022-08-05T05:14:48;28.10;40.60
4097;DHT22;2062;50.694;7.246;2022-08-05T05:17:17;28.10;40.70
4097;DHT22;2062;50.694;7.246;2022-08-05T05:19:44;28.10;40.60
4097;DHT22;2062;50.694;7.246;2022-08-05T05:22:11;28.10;40.70
4097;DHT22;2062;50.694;7.246;2022-08-05T05:24:38;28.10;40.70
4097;DHT22;2062;50.694;7.246;2022-08-05T05:27:04;28.10;40.90
4097;DHT22;2062;50.694;7.246;2022-08-05T05:29:31;28.10;41.00
4097;DHT22;2062;50.694;7.246;2022-08-05T05:31:58;28.10;41.10
4097;DHT22;2062;50.694;7.246;2022-08-05T05:34:26;28.10;41.30
4097;DHT22;2062;50.694;7.246;2022-08-05T05:36:53;28.10;41.20
4097;DHT22;2062;50.694;7.246;2022-08-05T05:39:20;28.10;41.20
4097;DHT22;2062;50.694;7.246;2022-08-05T05:41:47;28.10;41.20
4097;DHT22;2062;50.694;7.246;2022-08-05T05:44:13;28.00;41.20
4097;DHT22;2062;50.694;7.246;2022-08-05T05:46:40;28.10;42.00
4097;DHT22;2062;50.694;7.246;2022-08-05T05:49:07;28.10;41.90
4097;DHT22;2062;50.694;7.246;2022-08-05T05:51:35;28.00;41.20
4097;DHT22;2062;50.694;7.246;2022-08-05T05:54:02;28.00;41.20
4097;DHT22;2062;50.694;7.246;2022-08-05T05:56:30;28.00;41.40
4097;DHT22;2062;50.694;7.246;2022-08-05T05:58:57;28.00;41.50
4097;DHT22;2062;50.694;7.246;2022-08-05T06:01:23;28.00;41.50
4097;DHT22;2062;50.694;7.246;2022-08-05T06:03:50;27.90;41.00
4097;DHT22;2062;50.694;7.246;2022-08-05T06:06:18;27.90;41.10
4097;DHT22;2062;50.694;7.246;2022-08-05T06:08:46;27.90;41.10
4097;DHT22;2062;50.694;7.246;2022-08-05T06:11:13;27.90;41.10
4097;DHT22;2062;50.694;7.246;2022-08-05T06:13:40;27.90;41.20
4097;DHT22;2062;50.694;7.246;2022-08-05T06:16:07;27.90;41.30
4097;DHT22;2062;50.694;7.246;2022-08-05T06:18:34;27.90;41.30
4097;DHT22;2062;50.694;7.246;2022-08-05T06:21:02;27.80;41.40
4097;DHT22;2062;50.694;7.246;2022-08-05T06:23:29;27.80;41.40
4097;DHT22;2062;50.694;7.246;2022-08-05T06:25:57;27.80;41.50
4097;DHT22;2062;50.694;7.246;2022-08-05T06:28:24;27.80;41.70
4097;DHT22;2062;50.694;7.246;2022-08-05T06:30:51;27.80;41.90
4097;DHT22;2062;50.694;7.246;2022-08-05T06:33:18;27.80;41.90
4097;DHT22;2062;50.694;7.246;2022-08-05T06:35:45;27.80;41.90
4097;DHT22;2062;50.694;7.246;2022-08-05T06:38:12;27.80;42.70
4097;DHT22;2062;50.694;7.246;2022-08-05T06:40:39;27.80;42.10
4097;DHT22;2062;50.694;7.246;2022-08-05T06:43:09;27.70;42.10
4097;DHT22;2062;50.694;7.246;2022-08-05T06:45:35;27.70;42.30
4097;DHT22;2062;50.694;7.246;2022-08-05T06:48:03;27.70;42.20
4097;DHT22;2062;50.694;7.246;2022-08-05T06:50:30;27.70;42.30
4097;DHT22;2062;50.694;7.246;2022-08-05T06:52:56;27.70;43.10
4097;DHT22;2062;50.694;7.246;2022-08-05T06:55:23;27.70;42.50
4097;DHT22;2062;50.694;7.246;2022-08-05T06:57:50;27.70;42.60
4097;DHT22;2062;50.694;7.246;2022-08-05T07:00:19;27.70;42.80
4097;DHT22;2062;50.694;7.246;2022-08-05T07:02:46;27.70;42.80
4097;DHT22;2062;50.694;7.246;2022-08-05T07:05:13;27.60;42.80
4097;DHT22;2062;50.694;7.246;2022-08-05T07:07:40;27.60;42.80
4097;DHT22;2062;50.694;7.246;2022-08-05T07:10:09;27.60;42.80
4097;DHT22;2062;50.694;7.246;2022-08-05T07:12:36;27.60;42.90
4097;DHT22;2062;50.694;7.246;2022-08-05T07:15:21;27.60;42.90
4097;DHT22;2062;50.694;7.246;2022-08-05T07:18:06;27.50;42.90
4097;DHT22;2062;50.694;7.246;2022-08-05T07:20:32;27.50;42.90
4097;DHT22;2062;50.694;7.246;2022-08-05T07:22:59;27.40;43.70
4097;DHT22;2062;50.694;7.246;2022-08-05T07:25:26;27.50;43.10
4097;DHT22;2062;50.694;7.246;2022-08-05T07:27:54;27.40;43.20
4097;DHT22;2062;50.694;7.246;2022-08-05T07:30:23;27.40;43.20
4097;DHT22;2062;50.694;7.246;2022-08-05T07:32:49;27.40;43.40
4097;DHT22;2062;50.694;7.246;2022-08-05T07:35:16;27.30;43.40
4097;DHT22;2062;50.694;7.246;2022-08-05T07:37:43;27.30;43.40
4097;DHT22;2062;50.694;7.246;2022-08-05T07:40:10;27.30;43.50
4097;DHT22;2062;50.694;7.246;2022-08-05T07:42:37;27.20;43.50
4097;DHT22;2062;50.694;7.246;2022-08-05T07:45:04;27.20;43.60
4097;DHT22;2062;50.694;7.246;2022-08-05T07:47:33;27.20;43.70
4097;DHT22;2062;50.694;7.246;2022-08-05T07:50:00;27.20;43.80
4097;DHT22;2062;50.694;7.246;2022-08-05T07:52:27;27.10;43.80
4097;DHT22;2062;50.694;7.246;2022-08-05T07:54:54;27.10;43.90
4097;DHT22;2062;50.694;7.246;2022-08-05T07:57:20;27.10;43.90
4097;DHT22;2062;50.694;7.246;2022-08-05T07:59:47;27.10;44.00
4097;DHT22;2062;50.694;7.246;2022-08-05T08:02:14;27.10;44.00
4097;DHT22;2062;50.694;7.246;2022-08-05T08:04:43;27.00;44.00
4097;DHT22;2062;50.694;7.246;2022-08-05T08:07:10;27.00;44.10
4097;DHT22;2062;50.694;7.246;2022-08-05T08:09:37;27.00;44.70
4097;DHT22;2062;50.694;7.246;2022-08-05T08:12:04;27.00;44.00
4097;DHT22;2062;50.694;7.246;2022-08-05T08:14:31;27.00;44.00
4097;DHT22;2062;50.694;7.246;2022-08-05T08:16:58;27.00;44.00
4097;DHT22;2062;50.694;7.246;2022-08-05T08:19:25;27.00;44.00
4097;DHT22;2062;50.694;7.246;2022-08-05T08:21:53;26.90;43.50
4097;DHT22;2062;50.694;7.246;2022-08-05T08:24:20;27.00;44.10
4097;DHT22;2062;50.694;7.246;2022-08-05T08:26:46;26.90;43.50
4097;DHT22;2062;50.694;7.246;2022-08-05T08:29:15;26.90;43.60
4097;DHT22;2062;50.694;7.246;2022-08-05T08:31:42;26.90;43.60
4097;DHT22;2062;50.694;7.246;2022-08-05T08:34:08;26.90;43.70
4097;DHT22;2062;50.694;7.246;2022-08-05T08:36:36;26.90;43.70
4097;DHT22;2062;50.694;7.246;2022-08-05T08:39:05;26.90;43.70
4097;DHT22;2062;50.694;7.246;2022-08-05T08:41:33;26.80;43.80
4097;DHT22;2062;50.694;7.246;2022-08-05T08:44:01;26.80;43.70
4097;DHT22;2062;50.694;7.246;2022-08-05T08:46:30;26.80;43.80
4097;DHT22;2062;50.694;7.246;2022-08-05T08:48:58;26.80;43.80
4097;DHT22;2062;50.694;7.246;2022-08-05T08:51:26;26.80;43.80
4097;DHT22;2062;50.694;7.246;2022-08-05T08:53:57;26.80;43.90
4097;DHT22;2062;50.694;7.246;2022-08-05T08:56:25;26.70;44.10
4097;DHT22;2062;50.694;7.246;2022-08-05T08:58:52;26.70;44.10
4097;DHT22;2062;50.694;7.246;2022-08-05T09:01:20;26.70;44.10
4097;DHT22;2062;50.694;7.246;2022-08-05T09:03:48;26.70;44.10
4097;DHT22;2062;50.694;7.246;2022-08-05T09:06:15;26.70;44.00
4097;DHT22;2062;50.694;7.246;2022-08-05T09:08:42;26.70;44.10
4097;DHT22;2062;50.694;7.246;2022-08-05T09:11:09;26.70;44.10
4097;DHT22;2062;50.694;7.246;2022-08-05T09:13:38;26.70;44.10
4097;DHT22;2062;50.694;7.246;2022-08-05T09:16:05;26.60;44.20
4097;DHT22;2062;50.694;7.246;2022-08-05T09:18:34;26.70;44.10
4097;DHT22;2062;50.694;7.246;2022-08-05T09:21:01;26.70;44.10
4097;DHT22;2062;50.694;7.246;2022-08-05T09:23:28;26.70;44.20
4097;DHT22;2062;50.694;7.246;2022-08-05T09:26:05;26.70;44.00
4097;DHT22;2062;50.694;7.246;2022-08-05T09:28:33;26.70;44.00
4097;DHT22;2062;50.694;7.246;2022-08-05T09:31:04;26.70;43.90
4097;DHT22;2062;50.694;7.246;2022-08-05T09:33:31;26.80;43.90
4097;DHT22;2062;50.694;7.246;2022-08-05T09:36:11;26.80;43.90
4097;DHT22;2062;50.694;7.246;2022-08-05T09:38:54;26.80;43.80
4097;DHT22;2062;50.694;7.246;2022-08-05T09:41:21;26.80;43.80
4097;DHT22;2062;50.694;7.246;2022-08-05T09:43:48;26.80;43.70
4097;DHT22;2062;50.694;7.246;2022-08-05T09:46:28;26.90;43.70
4097;DHT22;2062;50.694;7.246;2022-08-05T09:48:56;26.90;43.70
4097;DHT22;2062;50.694;7.246;2022-08-05T09:51:33;26.90;43.60
4097;DHT22;2062;50.694;7.246;2022-08-05T09:54:01;26.90;43.60
4097;DHT22;2062;50.694;7.246;2022-08-05T09:56:30;26.90;43.50
4097;DHT22;2062;50.694;7.246;2022-08-05T09:59:00;26.90;43.50
4097;DHT22;2062;50.694;7.246;2022-08-05T10:01:29;26.90;43.50
4097;DHT22;2062;50.694;7.246;2022-08-05T10:04:00;27.00;44.00
4097;DHT22;2062;50.694;7.246;2022-08-05T10:06:29;27.00;44.00
4097;DHT22;2062;50.694;7.246;2022-08-05T10:09:09;26.90;43.40
4097;DHT22;2062;50.694;7.246;2022-08-05T10:11:35;27.00;43.90
4097;DHT22;2062;50.694;7.246;2022-08-05T10:14:20;27.00;43.80
4097;DHT22;2062;50.694;7.246;2022-08-05T10:16:49;27.00;43.80
4097;DHT22;2062;50.694;7.246;2022-08-05T10:19:16;27.00;43.60
4097;DHT22;2062;50.694;7.246;2022-08-05T10:21:43;27.00;43.60
4097;DHT22;2062;50.694;7.246;2022-08-05T10:24:11;27.00;43.50
4097;DHT22;2062;50.694;7.246;2022-08-05T10:26:39;27.00;43.50
4097;DHT22;2062;50.694;7.246;2022-08-05T10:29:06;27.00;43.50
4097;DHT22;2062;50.694;7.246;2022-08-05T10:31:35;27.00;43.40
4097;DHT22;2062;50.694;7.246;2022-08-05T10:34:05;27.00;43.40
4097;DHT22;2062;50.694;7.246;2022-08-05T10:36:33;27.00;43.30
4097;DHT22;2062;50.694;7.246;2022-08-05T10:39:04;27.00;43.30
4097;DHT22;2062;50.694;7.246;2022-08-05T10:41:34;27.00;43.20
4097;DHT22;2062;50.694;7.246;2022-08-05T10:44:04;27.00;43.20
4097;DHT22;2062;50.694;7.246;2022-08-05T10:46:43;27.00;43.10
4097;DHT22;2062;50.694;7.246;2022-08-05T10:49:12;27.00;43.10
4097;DHT22;2062;50.694;7.246;2022-08-05T10:51:43;27.00;43.10
4097;DHT22;2062;50.694;7.246;2022-08-05T10:54:10;27.00;43.00
4097;DHT22;2062;50.694;7.246;2022-08-05T10:56:44;27.00;43.00
4097;DHT22;2062;50.694;7.246;2022-08-05T10:59:15;27.00;43.00
4097;DHT22;2062;50.694;7.246;2022-08-05T11:01:42;27.00;42.90
4097;DHT22;2062;50.694;7.246;2022-08-05T11:04:12;27.00;42.90
4097;DHT22;2062;50.694;7.246;2022-08-05T11:07:04;27.00;42.80
4097;DHT22;2062;50.694;7.246;2022-08-05T11:09:36;27.10;42.80
4097;DHT22;2062;50.694;7.246;2022-08-05T11:12:04;27.10;42.80
4097;DHT22;2062;50.694;7.246;2022-08-05T11:15:04;27.10;42.70
4097;DHT22;2062;50.694;7.246;2022-08-05T11:17:33;27.00;42.70
4097;DHT22;2062;50.694;7.246;2022-08-05T11:20:05;27.00;42.60
4097;DHT22;2062;50.694;7.246;2022-08-05T11:22:43;27.10;42.60
4097;DHT22;2062;50.694;7.246;2022-08-05T11:25:29;27.00;42.50
4097;DHT22;2062;50.694;7.246;2022-08-05T11:27:56;27.00;42.50
4097;DHT22;2062;50.694;7.246;2022-08-05T11:30:23;27.10;42.50
4097;DHT22;2062;50.694;7.246;2022-08-05T11:33:25;27.00;42.50
4097;DHT22;2062;50.694;7.246;2022-08-05T11:35:56;27.10;42.50
4097;DHT22;2062;50.694;7.246;2022-08-05T11:38:49;27.10;42.60
4097;DHT22;2062;50.694;7.246;2022-08-05T11:41:20;27.10;42.60
4097;DHT22;2062;50.694;7.246;2022-08-05T11:43:55;27.00;42.50
4097;DHT22;2062;50.694;7.246;2022-08-05T11:46:24;27.10;42.50
4097;DHT22;2062;50.694;7.246;2022-08-05T11:48:52;27.10;42.40
4097;DHT22;2062;50.694;7.246;2022-08-05T11:51:21;27.10;42.40
4097;DHT22;2062;50.694;7.246;2022-08-05T11:53:48;27.10;42.40
4097;DHT22;2062;50.694;7.246;2022-08-05T11:56:15;27.10;42.40
4097;DHT22;2062;50.694;7.246;2022-08-05T11:58:44;27.10;42.30
4097;DHT22;2062;50.694;7.246;2022-08-05T12:01:13;27.10;42.20
4097;DHT22;2062;50.694;7.246;2022-08-05T12:03:42;27.10;42.10
4097;DHT22;2062;50.694;7.246;2022-08-05T12:06:11;27.00;42.10
4097;DHT22;2062;50.694;7.246;2022-08-05T12:08:45;27.10;42.10
4097;DHT22;2062;50.694;7.246;2022-08-05T12:11:17;27.10;42.10
4097;DHT22;2062;50.694;7.246;2022-08-05T12:13:52;27.10;42.00
4097;DHT22;2062;50.694;7.246;2022-08-05T12:16:20;27.10;42.10
4097;DHT22;2062;50.694;7.246;2022-08-05T12:18:48;27.10;41.90
4097;DHT22;2062;50.694;7.246;2022-08-05T12:21:17;27.10;41.70
4097;DHT22;2062;50.694;7.246;2022-08-05T12:23:57;27.10;41.50
4097;DHT22;2062;50.694;7.246;2022-08-05T12:26:29;27.10;41.40
4097;DHT22;2062;50.694;7.246;2022-08-05T12:28:56;27.10;41.30
4097;DHT22;2062;50.694;7.246;2022-08-05T12:31:24;27.10;41.30
4097;DHT22;2062;50.694;7.246;2022-08-05T12:33:52;27.00;41.10
4097;DHT22;2062;50.694;7.246;2022-08-05T12:36:19;27.10;41.00
4097;DHT22;2062;50.694;7.246;2022-08-05T12:38:47;27.10;40.90
4097;DHT22;2062;50.694;7.246;2022-08-05T12:41:16;27.10;40.70
4097;DHT22;2062;50.694;7.246;2022-08-05T12:43:50;27.00;40.60
4097;DHT22;2062;50.694;7.246;2022-08-05T12:46:22;27.10;40.60
4097;DHT22;2062;50.694;7.246;2022-08-05T12:48:57;27.00;40.40
4097;DHT22;2062;50.694;7.246;2022-08-05T12:51:24;27.00;40.30
4097;DHT22;2062;50.694;7.246;2022-08-05T12:53:58;27.00;40.30
4097;DHT22;2062;50.694;7.246;2022-08-05T12:56:29;27.10;40.20
4097;DHT22;2062;50.694;7.246;2022-08-05T12:59:16;27.10;40.30
4097;DHT22;2062;50.694;7.246;2022-08-05T13:01:52;27.00;40.10
4097;DHT22;2062;50.694;7.246;2022-08-05T13:04:20;27.00;40.10
4097;DHT22;2062;50.694;7.246;2022-08-05T13:06:47;27.00;40.10
4097;DHT22;2062;50.694;7.246;2022-08-05T13:09:14;27.00;40.00
4097;DHT22;2062;50.694;7.246;2022-08-05T13:11:43;27.00;40.00
4097;DHT22;2062;50.694;7.246;2022-08-05T13:14:21;27.00;39.90
4097;DHT22;2062;50.694;7.246;2022-08-05T13:16:51;27.00;39.80
4097;DHT22;2062;50.694;7.246;2022-08-05T13:19:21;27.00;39.40
4097;DHT22;2062;50.694;7.246;2022-08-05T13:21:48;27.00;39.50
4097;DHT22;2062;50.694;7.246;2022-08-05T13:24:16;27.00;39.40
4097;DHT22;2062;50.694;7.246;2022-08-05T13:26:46;27.00;39.30
4097;DHT22;2062;50.694;7.246;2022-08-05T13:29:14;27.00;39.30
4097;DHT22;2062;50.694;7.246;2022-08-05T13:31:42;27.00;39.20
4097;DHT22;2062;50.694;7.246;2022-08-05T13:34:09;27.00;39.10
4097;DHT22;2062;50.694;7.246;2022-08-05T13:36:36;27.00;39.20
4097;DHT22;2062;50.694;7.246;2022-08-05T13:39:04;26.90;38.40
4097;DHT22;2062;50.694;7.246;2022-08-05T13:41:31;26.90;39.00
4097;DHT22;2062;50.694;7.246;2022-08-05T13:44:00;27.00;38.70
4097;DHT22;2062;50.694;7.246;2022-08-05T13:46:27;26.90;38.00
4097;DHT22;2062;50.694;7.246;2022-08-05T13:48:54;26.90;38.10
4097;DHT22;2062;50.694;7.246;2022-08-05T13:51:29;27.00;38.50
4097;DHT22;2062;50.694;7.246;2022-08-05T13:53:57;26.90;37.90
4097;DHT22;2062;50.694;7.246;2022-08-05T13:56:24;26.90;38.00
4097;DHT22;2062;50.694;7.246;2022-08-05T13:58:51;26.90;37.90
4097;DHT22;2062;50.694;7.246;2022-08-05T14:01:20;26.90;37.80
4097;DHT22;2062;50.694;7.246;2022-08-05T14:03:47;26.90;38.30
4097;DHT22;2062;50.694;7.246;2022-08-05T14:06:32;26.90;37.60
4097;DHT22;2062;50.694;7.246;2022-08-05T14:08:59;26.90;37.70
4097;DHT22;2062;50.694;7.246;2022-08-05T14:11:26;26.90;37.70
4097;DHT22;2062;50.694;7.246;2022-08-05T14:13:54;26.90;37.90
4097;DHT22;2062;50.694;7.246;2022-08-05T14:16:23;26.90;38.00
4097;DHT22;2062;50.694;7.246;2022-08-05T14:18:50;26.90;37.90
4097;DHT22;2062;50.694;7.246;2022-08-05T14:21:18;26.90;37.90
4097;DHT22;2062;50.694;7.246;2022-08-05T14:23:45;26.90;38.00
4097;DHT22;2062;50.694;7.246;2022-08-05T14:26:12;27.00;38.30
4097;DHT22;2062;50.694;7.246;2022-08-05T14:28:39;27.00;38.40
4097;DHT22;2062;50.694;7.246;2022-08-05T14:31:07;27.00;38.40
4097;DHT22;2062;50.694;7.246;2022-08-05T14:33:35;27.00;38.30
4097;DHT22;2062;50.694;7.246;2022-08-05T14:36:03;27.00;38.20
4097;DHT22;2062;50.694;7.246;2022-08-05T14:38:30;27.00;38.10
4097;DHT22;2062;50.694;7.246;2022-08-05T14:40:57;27.00;38.10
4097;DHT22;2062;50.694;7.246;2022-08-05T14:43:24;26.90;37.50
4097;DHT22;2062;50.694;7.246;2022-08-05T14:45:51;27.00;37.90
4097;DHT22;2062;50.694;7.246;2022-08-05T14:48:18;26.90;38.00
4097;DHT22;2062;50.694;7.246;2022-08-05T14:50:46;26.90;37.20
4097;DHT22;2062;50.694;7.246;2022-08-05T14:53:13;26.90;37.20
4097;DHT22;2062;50.694;7.246;2022-08-05T14:55:40;26.90;37.30
4097;DHT22;2062;50.694;7.246;2022-08-05T14:58:07;26.90;37.30
4097;DHT22;2062;50.694;7.246;2022-08-05T15:00:35;26.90;37.40
4097;DHT22;2062;50.694;7.246;2022-08-05T15:03:02;27.00;38.50
4097;DHT22;2062;50.694;7.246;2022-08-05T15:05:30;27.00;37.70
4097;DHT22;2062;50.694;7.246;2022-08-05T15:07:58;27.00;37.60
4097;DHT22;2062;50.694;7.246;2022-08-05T15:10:26;27.00;37.60
4097;DHT22;2062;50.694;7.246;2022-08-05T15:12:53;26.90;37.10
4097;DHT22;2062;50.694;7.246;2022-08-05T15:15:20;27.00;37.60
4097;DHT22;2062;50.694;7.246;2022-08-05T15:17:47;27.00;37.60
4097;DHT22;2062;50.694;7.246;2022-08-05T15:20:14;27.00;37.50
4097;DHT22;2062;50.694;7.246;2022-08-05T15:22:41;27.00;37.50
4097;DHT22;2062;50.694;7.246;2022-08-05T15:25:09;27.00;37.50
4097;DHT22;2062;50.694;7.246;2022-08-05T15:27:37;27.00;37.40
4097;DHT22;2062;50.694;7.246;2022-08-05T15:30:04;27.00;37.30
4097;DHT22;2062;50.694;7.246;2022-08-05T15:32:32;27.00;37.30
4097;DHT22;2062;50.694;7.246;2022-08-05T15:34:59;26.90;36.70
4097;DHT22;2062;50.694;7.246;2022-08-05T15:37:26;27.00;37.20
4097;DHT22;2062;50.694;7.246;2022-08-05T15:39:53;27.00;37.20
4097;DHT22;2062;50.694;7.246;2022-08-05T15:42:23;26.90;36.60
4097;DHT22;2062;50.694;7.246;2022-08-05T15:44:50;26.90;36.60
4097;DHT22;2062;50.694;7.246;2022-08-05T15:47:19;26.90;36.50
4097;DHT22;2062;50.694;7.246;2022-08-05T15:49:48;26.90;36.50
4097;DHT22;2062;50.694;7.246;2022-08-05T15:52:15;26.90;36.40
4097;DHT22;2062;50.694;7.246;2022-08-05T15:54:42;26.90;36.50
4097;DHT22;2062;50.694;7.246;2022-08-05T15:57:09;26.90;36.50
4097;DHT22;2062;50.694;7.246;2022-08-05T15:59:38;27.00;36.90
4097;DHT22;2062;50.694;7.246;2022-08-05T16:02:05;27.00;36.80
4097;DHT22;2062;50.694;7.246;2022-08-05T16:04:34;26.90;36.30
4097;DHT22;2062;50.694;7.246;2022-08-05T16:07:01;26.90;36.20
4097;DHT22;2062;50.694;7.246;2022-08-05T16:09:28;26.90;36.00
4097;DHT22;2062;50.694;7.246;2022-08-05T16:11:55;26.90;35.70
4097;DHT22;2062;50.694;7.246;2022-08-05T16:14:21;26.90;35.70